Time;durP1;ratioP1;P1;durP2;ratioP2;P2;SDS_P1;SDS_P2;PMS_P1;PMS_P2;Temp;Humidity;BMP_temperature;BMP_pressure;BME280_temperature;BME280_humidity;BME280_pressure;Samples;Min_cycle;Max_cycle;Signal;HPM_P1;HPM_P2
2024/01/11 00:00:38;;;;;;;;;;;-5.00;89.80;;;;;;5083794;28;20018;-75
2024/01/11 00:03:04;;;;;;;;;;;-4.90;90.00;;;;;;5064156;28;19982;-74
2024/01/11 00:05:29;;;;;;;;;;;-5.00;90.10;;;;;;5084470;28;19967;-74
2024/01/11 00:07:55;;;;;;;;;;;-3.30;90.40;;;;;;5083603;28;19934;-74
2024/01/11 00:10:21;;;;;;;;;;;-5.00;90.10;;;;;;5082905;27;19959;-74
2024/01/11 00:12:46;;;;;;;;;;;-5.30;90.10;;;;;;5101332;28;19989;-74
2024/01/11 00:15:12;;;;;;;;;;;-5.20;90.20;;;;;;5081884;28;19950;-74
2024/01/11 00:17:38;;;;;;;;;;;-3.00;90.90;;;;;;5102459;28;19978;-74
2024/01/11 00:20:04;;;;;;;;;;;-5.50;90.40;;;;;;5066946;27;20724;-74
2024/01/11 00:22:33;;;;;;;;;;;-4.90;90.60;;;;;;5101942;27;19924;-75
2024/01/11 00:25:04;;;;;;;;;;;-4.20;90.90;;;;;;5067577;28;20009;-74
2024/01/11 00:27:30;;;;;;;;;;;-5.10;90.70;;;;;;5083832;28;20378;-72
2024/01/11 00:29:56;;;;;;;;;;;-5.10;90.80;;;;;;5063852;28;19931;-75
2024/01/11 00:32:21;;;;;;;;;;;-3.80;91.30;;;;;;5082819;28;19924;-74
2024/01/11 00:34:47;;;;;;;;;;;-5.00;91.10;;;;;;5100625;27;20022;-73
2024/01/11 00:37:19;;;;;;;;;;;-3.60;91.40;;;;;;5083072;28;20377;-74
2024/01/11 00:39:45;;;;;;;;;;;-3.10;91.70;;;;;;5084711;28;20026;-74
2024/01/11 00:42:10;;;;;;;;;;;-5.10;91.30;;;;;;5083043;28;19931;-74
2024/01/11 00:44:36;;;;;;;;;;;-5.20;91.40;;;;;;5083510;28;19938;-74
2024/01/11 00:47:01;;;;;;;;;;;-5.00;91.60;;;;;;5081344;28;19924;-74
2024/01/11 00:49:27;;;;;;;;;;;-2.70;92.30;;;;;;5081780;28;19924;-74
2024/01/11 00:51:53;;;;;;;;;;;-5.10;91.80;;;;;;5065163;28;19935;-75
2024/01/11 00:54:19;;;;;;;;;;;-3.00;92.40;;;;;;5083882;28;19938;-74
2024/01/11 00:56:44;;;;;;;;;;;-4.60;92.10;;;;;;5083283;28;20618;-74
2024/01/11 00:59:10;;;;;;;;;;;-5.00;92.10;;;;;;5081586;28;20022;-74
2024/01/11 01:01:36;;;;;;;;;;;-5.20;92.00;;;;;;5081555;28;19932;-74
2024/01/11 01:04:02;;;;;;;;;;;-5.00;92.20;;;;;;5083734;28;20010;-74
2024/01/11 01:06:27;;;;;;;;;;;-5.00;92.30;;;;;;5065818;28;20426;-73
2024/01/11 01:08:54;;;;;;;;;;;-2.90;93.00;;;;;;5066460;28;19927;-74
2024/01/11 01:11:19;;;;;;;;;;;-5.30;92.30;;;;;;5060849;28;20378;-75
2024/01/11 01:13:45;;;;;;;;;;;-3.70;93.00;;;;;;5047991;28;19938;-74
2024/01/11 01:16:11;;;;;;;;;;;-5.00;92.60;;;;;;5082643;28;20045;-74
2024/01/11 01:18:36;;;;;;;;;;;-5.10;93.00;;;;;;5065591;28;19928;-74
2024/01/11 01:21:06;;;;;;;;;;;-3.50;93.30;;;;;;5079125;28;19924;-74
2024/01/11 01:23:32;;;;;;;;;;;-5.00;92.90;;;;;;5080684;28;19947;-74
2024/01/11 01:25:57;;;;;;;;;;;-5.20;93.00;;;;;;5081056;28;19927;-74
2024/01/11 01:28:23;;;;;;;;;;;-5.10;93.00;;;;;;5082495;28;20048;-74
2024/01/11 01:30:49;;;;;;;;;;;-3.80;93.40;;;;;;5082503;28;19931;-73
2024/01/11 01:33:14;;;;;;;;;;;-5.20;92.90;;;;;;5081467;28;19924;-74
2024/01/11 01:35:40;;;;;;;;;;;-5.30;93.00;;;;;;5048931;28;19932;-73
2024/01/11 01:38:06;;;;;;;;;;;-5.10;93.20;;;;;;5065309;28;19932;-73
2024/01/11 01:40:37;;;;;;;;;;;-5.20;93.20;;;;;;5081240;28;19978;-74
2024/01/11 01:43:06;;;;;;;;;;;-3.40;93.70;;;;;;5079635;28;20244;-74
2024/01/11 01:45:31;;;;;;;;;;;-5.20;93.20;;;;;;5083774;28;19928;-74
2024/01/11 01:47:57;;;;;;;;;;;-4.30;93.50;;;;;;5080790;28;19923;-73
2024/01/11 01:50:23;;;;;;;;;;;-5.20;93.30;;;;;;5081147;28;20014;-74
2024/01/11 01:52:51;;;;;;;;;;;-5.40;93.30;;;;;;5063682;28;20487;-74
2024/01/11 01:55:17;;;;;;;;;;;-5.30;93.30;;;;;;5099535;28;19928;-74
2024/01/11 01:57:43;;;;;;;;;;;-3.20;93.80;;;;;;5081510;28;19931;-74
2024/01/11 02:00:10;;;;;;;;;;;-5.40;93.30;;;;;;5096454;28;19974;-74
2024/01/11 02:02:37;;;;;;;;;;;-5.20;93.30;;;;;;5065382;28;20033;-74
2024/01/11 02:05:03;;;;;;;;;;;-4.40;93.50;;;;;;5083200;28;19980;-74
2024/01/11 02:07:28;;;;;;;;;;;-5.30;93.40;;;;;;5084372;28;20014;-74
2024/01/11 02:09:54;;;;;;;;;;;-5.30;93.40;;;;;;5070813;28;19963;-74
2024/01/11 02:12:20;;;;;;;;;;;-5.40;93.70;;;;;;5064552;28;19957;-73
2024/01/11 02:14:45;;;;;;;;;;;-2.60;94.00;;;;;;5084930;28;20331;-74
2024/01/11 02:17:11;;;;;;;;;;;-3.50;93.90;;;;;;5065061;28;19923;-74
2024/01/11 02:19:37;;;;;;;;;;;-4.30;93.70;;;;;;5085112;28;20439;-74
2024/01/11 02:22:08;;;;;;;;;;;-5.10;93.60;;;;;;5066151;28;20370;-73
2024/01/11 02:24:33;;;;;;;;;;;-5.20;93.40;;;;;;5085831;28;19939;-74
2024/01/11 02:26:59;;;;;;;;;;;-2.90;94.00;;;;;;5083046;28;19963;-74
2024/01/11 02:29:26;;;;;;;;;;;-5.40;93.40;;;;;;5085831;28;19924;-74
2024/01/11 02:31:59;;;;;;;;;;;-3.80;93.70;;;;;;5065012;28;20006;-74
2024/01/11 02:34:29;;;;;;;;;;;-5.40;93.30;;;;;;5084770;28;20320;-74
2024/01/11 02:36:55;;;;;;;;;;;-5.30;93.30;;;;;;5082226;28;20315;-74
2024/01/11 02:39:22;;;;;;;;;;;-5.80;93.20;;;;;;5085970;27;19924;-73
2024/01/11 02:41:49;;;;;;;;;;;-5.50;93.10;;;;;;5066441;28;19931;-74
2024/01/11 02:44:15;;;;;;;;;;;-3.20;93.80;;;;;;5097944;27;20629;-74
2024/01/11 02:46:40;;;;;;;;;;;-5.60;93.20;;;;;;5099721;27;19928;-75
2024/01/11 02:49:06;;;;;;;;;;;-5.50;93.30;;;;;;5084363;28;19950;-74
2024/01/11 02:51:36;;;;;;;;;;;-5.10;93.40;;;;;;5102915;27;19961;-73
2024/01/11 02:54:02;;;;;;;;;;;-3.00;93.90;;;;;;5081329;27;19932;-74
2024/01/11 02:56:27;;;;;;;;;;;-7.50;92.80;;;;;;5084761;28;19935;-74
2024/01/11 02:58:53;;;;;;;;;;;-4.60;93.40;;;;;;5098598;27;19934;-73
2024/01/11 03:01:19;;;;;;;;;;;-5.70;93.10;;;;;;5082547;28;20608;-74
2024/01/11 03:03:44;;;;;;;;;;;-3.20;93.70;;;;;;5082376;28;19982;-74
2024/01/11 03:06:10;;;;;;;;;;;-3.90;93.70;;;;;;5083477;27;19977;-73
2024/01/11 03:08:35;;;;;;;;;;;-5.40;93.40;;;;;;5082129;28;19927;-73
2024/01/11 03:11:01;;;;;;;;;;;-3.80;93.60;;;;;;5084078;28;19928;-74
2024/01/11 03:13:27;;;;;;;;;;;-5.40;93.40;;;;;;5066526;28;19959;-74
2024/01/11 03:15:52;;;;;;;;;;;-3.20;93.90;;;;;;5081570;28;19966;-74
2024/01/11 03:18:19;;;;;;;;;;;-4.40;93.60;;;;;;5066863;28;19928;-73
2024/01/11 03:20:45;;;;;;;;;;;-3.20;93.90;;;;;;5084093;28;20359;-73
2024/01/11 03:23:11;;;;;;;;;;;-5.60;93.40;;;;;;5067469;27;19959;-74
2024/01/11 03:25:36;;;;;;;;;;;-5.60;93.40;;;;;;5082220;28;20013;-74
2024/01/11 03:28:02;;;;;;;;;;;-4.80;93.70;;;;;;5063213;28;19928;-74
2024/01/11 03:30:28;;;;;;;;;;;-5.60;93.50;;;;;;5084809;28;19930;-73
2024/01/11 03:32:55;;;;;;;;;;;-4.20;93.90;;;;;;5066269;28;20127;-74
2024/01/11 03:35:21;;;;;;;;;;;-5.60;93.60;;;;;;5064591;28;20337;-73
2024/01/11 03:37:47;;;;;;;;;;;-5.50;93.60;;;;;;5066917;28;19932;-73
2024/01/11 03:40:14;;;;;;;;;;;-4.20;93.90;;;;;;5082928;28;20248;-74
2024/01/11 03:42:39;;;;;;;;;;;-4.70;93.90;;;;;;5063619;28;19938;-74
2024/01/11 03:45:05;;;;;;;;;;;-4.00;94.00;;;;;;5082139;28;19931;-73
2024/01/11 03:47:31;;;;;;;;;;;-5.70;93.60;;;;;;5100307;28;19934;-74
2024/01/11 03:49:57;;;;;;;;;;;-5.70;93.60;;;;;;5081494;27;20399;-73
2024/01/11 03:52:22;;;;;;;;;;;-5.80;93.80;;;;;;5068691;28;19930;-74
2024/01/11 03:54:48;;;;;;;;;;;-5.80;93.60;;;;;;5084209;28;19934;-73
2024/01/11 03:57:14;;;;;;;;;;;-5.70;93.60;;;;;;5083389;28;19928;-73
2024/01/11 03:59:40;;;;;;;;;;;-5.70;93.70;;;;;;5062682;28;19967;-74
2024/01/11 04:02:07;;;;;;;;;;;-5.90;93.70;;;;;;5068277;28;19967;-73
2024/01/11 04:04:33;;;;;;;;;;;-5.70;93.60;;;;;;5083971;28;19955;-73
2024/01/11 04:06:59;;;;;;;;;;;-3.60;94.20;;;;;;5064184;27;20027;-73
2024/01/11 04:09:25;;;;;;;;;;;-5.70;93.80;;;;;;5082326;28;19927;-73
2024/01/11 04:11:50;;;;;;;;;;;-5.60;93.90;;;;;;5102016;27;19927;-73
2024/01/11 04:14:16;;;;;;;;;;;-5.70;94.00;;;;;;5083340;28;20374;-73
2024/01/11 04:16:42;;;;;;;;;;;-5.60;94.00;;;;;;5083933;28;19939;-73
2024/01/11 04:19:09;;;;;;;;;;;-5.70;93.90;;;;;;5082313;28;20015;-74
2024/01/11 04:21:41;;;;;;;;;;;-3.70;94.30;;;;;;5099298;27;20019;-73
2024/01/11 04:24:06;;;;;;;;;;;-5.80;93.80;;;;;;5065918;28;19931;-73
2024/01/11 04:26:32;;;;;;;;;;;-5.40;94.10;;;;;;5104118;28;19949;-74
2024/01/11 04:28:59;;;;;;;;;;;-5.70;93.90;;;;;;5065722;28;20321;-73
2024/01/11 04:31:25;;;;;;;;;;;-5.90;93.80;;;;;;5081740;28;19993;-73
2024/01/11 04:33:51;;;;;;;;;;;-5.60;93.90;;;;;;5082006;28;19939;-75
2024/01/11 04:36:16;;;;;;;;;;;-4.90;94.20;;;;;;5081605;28;20346;-73
2024/01/11 04:38:44;;;;;;;;;;;-5.80;94.10;;;;;;5082603;28;19938;-73
2024/01/11 04:41:10;;;;;;;;;;;-5.80;94.00;;;;;;5081213;28;19958;-73
2024/01/11 04:43:41;;;;;;;;;;;-3.50;94.80;;;;;;5082724;27;19938;-74
2024/01/11 04:46:13;;;;;;;;;;;-5.70;94.00;;;;;;5097112;28;19935;-73
2024/01/11 04:48:39;;;;;;;;;;;-5.80;94.20;;;;;;5081923;28;19931;-74
2024/01/11 04:51:04;;;;;;;;;;;-5.80;94.30;;;;;;5066032;28;19931;-74
2024/01/11 04:53:35;;;;;;;;;;;-5.70;94.20;;;;;;5101571;28;19928;-74
2024/01/11 04:56:01;;;;;;;;;;;-5.70;94.20;;;;;;5080456;28;20085;-73
2024/01/11 04:58:27;;;;;;;;;;;-5.90;94.20;;;;;;5084767;28;19996;-73
2024/01/11 05:00:53;;;;;;;;;;;-5.70;94.10;;;;;;5082559;28;19930;-73
2024/01/11 05:03:19;;;;;;;;;;;-5.10;94.50;;;;;;5101416;28;19931;-73
2024/01/11 05:05:44;;;;;;;;;;;-5.80;94.40;;;;;;5082929;28;20001;-73
2024/01/11 05:08:10;;;;;;;;;;;-4.70;94.70;;;;;;5097330;28;19920;-74
2024/01/11 05:10:36;;;;;;;;;;;-5.70;94.50;;;;;;5065944;28;19927;-73
2024/01/11 05:13:01;;;;;;;;;;;-3.60;95.00;;;;;;5098748;28;19990;-73
2024/01/11 05:15:27;;;;;;;;;;;-5.70;94.60;;;;;;5046227;28;19932;-73
2024/01/11 05:17:58;;;;;;;;;;;-5.60;94.70;;;;;;5082007;28;20430;-74
2024/01/11 05:20:24;;;;;;;;;;;-5.50;94.90;;;;;;5081149;28;20014;-73
2024/01/11 05:22:49;;;;;;;;;;;-3.30;96.00;;;;;;5079847;28;19932;-74
2024/01/11 05:25:15;;;;;;;;;;;-5.10;95.60;;;;;;5066750;28;19974;-74
2024/01/11 05:27:41;;;;;;;;;;;-5.30;95.80;;;;;;5080865;28;20054;-74
2024/01/11 05:30:07;;;;;;;;;;;-3.10;96.50;;;;;;5084434;28;20018;-74
2024/01/11 05:32:33;;;;;;;;;;;-4.90;96.10;;;;;;5081374;28;19927;-74
2024/01/11 05:34:59;;;;;;;;;;;-4.80;96.20;;;;;;5081053;28;19932;-74
2024/01/11 05:37:25;;;;;;;;;;;-4.70;96.30;;;;;;5080888;27;20223;-74
2024/01/11 05:39:51;;;;;;;;;;;-4.60;96.30;;;;;;5085245;28;19928;-74
2024/01/11 05:42:17;;;;;;;;;;;-4.50;96.30;;;;;;5085452;28;20507;-74
2024/01/11 05:44:43;;;;;;;;;;;-4.40;96.30;;;;;;5101806;27;19942;-73
2024/01/11 05:47:09;;;;;;;;;;;-4.40;96.30;;;;;;5065325;27;19939;-73
2024/01/11 05:49:35;;;;;;;;;;;-3.10;96.70;;;;;;5084460;28;20350;-74
2024/01/11 05:52:00;;;;;;;;;;;-4.40;96.20;;;;;;5102952;27;19976;-73
2024/01/11 05:54:28;;;;;;;;;;;-4.10;96.30;;;;;;5103408;27;19923;-74
2024/01/11 05:56:56;;;;;;;;;;;-3.40;96.30;;;;;;5100236;27;19927;-73
2024/01/11 05:59:22;;;;;;;;;;;-3.60;96.20;;;;;;5082800;28;19924;-73
2024/01/11 06:01:47;;;;;;;;;;;-4.00;96.00;;;;;;5084875;28;19966;-73
2024/01/11 06:04:13;;;;;;;;;;;-4.00;96.00;;;;;;5072825;28;20010;-72
2024/01/11 06:06:39;;;;;;;;;;;-3.80;96.10;;;;;;5067628;28;20290;-73
2024/01/11 06:09:05;;;;;;;;;;;-3.00;96.00;;;;;;5083604;28;20580;-74
2024/01/11 06:11:31;;;;;;;;;;;-3.50;96.20;;;;;;5082966;28;19981;-74
2024/01/11 06:13:57;;;;;;;;;;;-4.00;95.70;;;;;;5083918;28;19928;-74
2024/01/11 06:16:23;;;;;;;;;;;-3.80;95.70;;;;;;5084041;28;19981;-73
2024/01/11 06:18:48;;;;;;;;;;;-2.80;96.00;;;;;;5083261;28;19989;-73
2024/01/11 06:21:16;;;;;;;;;;;-3.40;95.80;;;;;;5066394;28;19924;-74
2024/01/11 06:23:45;;;;;;;;;;;-2.70;95.80;;;;;;5082481;27;19982;-74
2024/01/11 06:26:11;;;;;;;;;;;-3.30;95.60;;;;;;5082546;28;19927;-74
2024/01/11 06:28:36;;;;;;;;;;;-3.40;95.60;;;;;;5091019;28;19928;-74
2024/01/11 06:31:03;;;;;;;;;;;-2.70;95.70;;;;;;5063600;28;19931;-74
2024/01/11 06:33:29;;;;;;;;;;;-3.20;95.40;;;;;;5083169;28;20037;-74
2024/01/11 06:35:55;;;;;;;;;;;-1.10;95.80;;;;;;5083972;28;19978;-74
2024/01/11 06:38:21;;;;;;;;;;;-2.30;95.50;;;;;;5084273;28;19935;-74
2024/01/11 06:40:48;;;;;;;;;;;-3.30;95.30;;;;;;5067297;27;19924;-74
2024/01/11 06:43:14;;;;;;;;;;;-3.20;95.20;;;;;;5100193;27;19932;-75
2024/01/11 06:45:40;;;;;;;;;;;-4.20;95.20;;;;;;5083897;28;20379;-73
2024/01/11 06:48:06;;;;;;;;;;;-1.80;95.60;;;;;;5082118;28;19928;-74
2024/01/11 06:50:37;;;;;;;;;;;-3.10;95.30;;;;;;5081675;28;19935;-73
2024/01/11 06:53:03;;;;;;;;;;;-2.50;95.30;;;;;;5083398;28;19924;-73
2024/01/11 06:55:29;;;;;;;;;;;-2.90;95.30;;;;;;5084511;28;20434;-74
2024/01/11 06:57:54;;;;;;;;;;;-2.90;95.20;;;;;;5061924;28;19935;-75
2024/01/11 07:00:21;;;;;;;;;;;-0.80;95.60;;;;;;5064231;28;21538;-75
2024/01/11 07:02:47;;;;;;;;;;;-2.90;95.10;;;;;;5084773;28;19987;-76
2024/01/11 07:05:12;;;;;;;;;;;-2.60;95.20;;;;;;5082445;27;20018;-75
2024/01/11 07:07:39;;;;;;;;;;;-2.60;95.30;;;;;;5083717;28;19931;-76
2024/01/11 07:10:05;;;;;;;;;;;-2.60;95.10;;;;;;5097535;27;19932;-75
2024/01/11 07:12:34;;;;;;;;;;;-2.50;95.00;;;;;;5101940;28;20046;-76
2024/01/11 07:15:06;;;;;;;;;;;-2.00;94.80;;;;;;5082492;28;19979;-77
2024/01/11 07:17:33;;;;;;;;;;;-2.50;94.50;;;;;;5083708;28;20294;-76
2024/01/11 07:19:59;;;;;;;;;;;-2.60;94.20;;;;;;5067147;28;20208;-75
2024/01/11 07:22:25;;;;;;;;;;;-2.30;94.30;;;;;;5064435;28;19928;-73
2024/01/11 07:24:50;;;;;;;;;;;-1.10;93.90;;;;;;5081942;28;20434;-73
2024/01/11 07:27:16;;;;;;;;;;;-2.00;93.40;;;;;;5081697;28;19943;-74
2024/01/11 07:29:41;;;;;;;;;;;-1.60;93.40;;;;;;5065136;28;19928;-73
2024/01/11 07:32:07;;;;;;;;;;;-0.70;93.50;;;;;;5061450;28;20001;-74
2024/01/11 07:34:33;;;;;;;;;;;-2.30;92.80;;;;;;5062185;27;20062;-74
2024/01/11 07:36:59;;;;;;;;;;;-2.30;92.60;;;;;;5064327;28;19932;-73
2024/01/11 07:39:24;;;;;;;;;;;-2.00;92.70;;;;;;5081582;28;20208;-76
2024/01/11 07:41:50;;;;;;;;;;;-2.10;92.70;;;;;;5064239;27;19928;-76
2024/01/11 07:44:21;;;;;;;;;;;-2.10;92.60;;;;;;5063193;28;20017;-75
2024/01/11 07:46:47;;;;;;;;;;;-0.90;93.20;;;;;;5060629;28;19931;-74
2024/01/11 07:49:12;;;;;;;;;;;-0.90;93.40;;;;;;5065889;28;19948;-74
2024/01/11 07:51:38;;;;;;;;;;;-0.10;93.80;;;;;;5049091;28;19950;-73
2024/01/11 07:54:06;;;;;;;;;;;-1.70;93.50;;;;;;5079660;28;19924;-74
2024/01/11 07:56:31;;;;;;;;;;;0.30;94.20;;;;;;5067658;28;20064;-74
2024/01/11 07:58:57;;;;;;;;;;;-0.40;94.20;;;;;;5064300;28;20014;-73
2024/01/11 08:01:22;;;;;;;;;;;-0.70;94.30;;;;;;5077813;28;19932;-73
2024/01/11 08:03:51;;;;;;;;;;;-0.50;94.40;;;;;;5099897;27;19978;-75
2024/01/11 08:06:17;;;;;;;;;;;0.30;94.80;;;;;;5049127;28;19924;-75
2024/01/11 08:08:43;;;;;;;;;;;-1.50;94.60;;;;;;5083362;28;19953;-76
2024/01/11 08:11:09;;;;;;;;;;;-0.10;95.10;;;;;;5100285;27;19967;-75
2024/01/11 08:13:37;;;;;;;;;;;-1.50;95.20;;;;;;5085966;28;20386;-75
2024/01/11 08:16:04;;;;;;;;;;;0.40;96.00;;;;;;5068159;28;19931;-76
2024/01/11 08:18:30;;;;;;;;;;;-1.30;95.80;;;;;;5067470;28;19931;-75
2024/01/11 08:20:56;;;;;;;;;;;-1.30;96.10;;;;;;5067599;28;19928;-75
2024/01/11 08:23:22;;;;;;;;;;;-0.70;96.30;;;;;;5084815;28;19935;-75
2024/01/11 08:25:47;;;;;;;;;;;-1.30;96.40;;;;;;5066855;28;20367;-75
2024/01/11 08:28:13;;;;;;;;;;;-1.20;96.60;;;;;;5083247;28;19931;-73
2024/01/11 08:30:38;;;;;;;;;;;-1.10;97.00;;;;;;5083425;28;19985;-77
2024/01/11 08:33:04;;;;;;;;;;;-1.00;97.10;;;;;;5069549;28;19927;-78
2024/01/11 08:35:32;;;;;;;;;;;-1.10;97.30;;;;;;5084746;28;20010;-75
2024/01/11 08:37:57;;;;;;;;;;;-0.50;97.70;;;;;;5083435;28;19932;-74
2024/01/11 08:40:23;;;;;;;;;;;-1.00;97.60;;;;;;5083456;28;19950;-73
2024/01/11 08:42:49;;;;;;;;;;;-1.00;97.90;;;;;;5068968;28;20015;-77
2024/01/11 08:45:17;;;;;;;;;;;-0.60;98.10;;;;;;5066506;28;19927;-77
2024/01/11 08:47:47;;;;;;;;;;;-0.70;98.60;;;;;;5087940;28;19984;-77
2024/01/11 08:50:13;;;;;;;;;;;-0.70;98.70;;;;;;5102340;28;19924;-77
2024/01/11 08:52:41;;;;;;;;;;;0.60;99.20;;;;;;5087527;28;20375;-77
2024/01/11 08:55:12;;;;;;;;;;;-0.50;99.10;;;;;;5103002;28;19984;-74
2024/01/11 08:57:38;;;;;;;;;;;-0.70;99.20;;;;;;5087026;28;19987;-74
2024/01/11 09:00:09;;;;;;;;;;;-0.40;99.40;;;;;;5085360;28;19938;-74
2024/01/11 09:02:35;;;;;;;;;;;-0.40;99.50;;;;;;5083534;28;19924;-75
2024/01/11 09:05:02;;;;;;;;;;;-0.40;99.70;;;;;;5084381;28;19950;-74
2024/01/11 09:07:27;;;;;;;;;;;-0.20;99.80;;;;;;5082495;28;19935;-75
2024/01/11 09:09:54;;;;;;;;;;;-0.40;99.90;;;;;;5083604;28;19924;-74
2024/01/11 09:12:20;;;;;;;;;;;1.00;99.90;;;;;;5088488;28;19932;-75
2024/01/11 09:14:45;;;;;;;;;;;1.80;99.90;;;;;;5071806;28;19976;-74
2024/01/11 09:17:11;;;;;;;;;;;-0.20;99.90;;;;;;5088779;28;19932;-74
2024/01/11 09:19:40;;;;;;;;;;;0.10;99.90;;;;;;5071999;28;20265;-74
2024/01/11 09:22:08;;;;;;;;;;;0.00;99.90;;;;;;5070756;28;19924;-74
2024/01/11 09:24:33;;;;;;;;;;;0.10;99.90;;;;;;5087477;28;19996;-75
2024/01/11 09:26:59;;;;;;;;;;;0.10;99.90;;;;;;5071228;28;19980;-75
2024/01/11 09:29:30;;;;;;;;;;;0.30;99.90;;;;;;5075181;28;19927;-74
2024/01/11 09:31:56;;;;;;;;;;;1.20;99.90;;;;;;5084781;28;20619;-74
2024/01/11 09:34:22;;;;;;;;;;;0.60;99.90;;;;;;5103546;27;19928;-73
2024/01/11 09:36:53;;;;;;;;;;;1.20;99.90;;;;;;5086163;28;19939;-75
2024/01/11 09:39:19;;;;;;;;;;;0.80;99.90;;;;;;5089448;28;19931;-75
2024/01/11 09:41:51;;;;;;;;;;;0.90;99.90;;;;;;5084933;28;19999;-75
2024/01/11 09:44:18;;;;;;;;;;;0.90;99.90;;;;;;5089548;28;19945;-76
2024/01/11 09:46:43;;;;;;;;;;;1.10;99.90;;;;;;5083563;27;19936;-74
2024/01/11 09:49:10;;;;;;;;;;;1.00;99.90;;;;;;5106877;28;19934;-74
2024/01/11 09:51:37;;;;;;;;;;;1.00;99.90;;;;;;5071961;28;19927;-75
2024/01/11 09:54:03;;;;;;;;;;;1.70;99.90;;;;;;5089374;28;19936;-74
2024/01/11 09:56:29;;;;;;;;;;;1.20;99.90;;;;;;5105059;28;19932;-74
2024/01/11 09:58:54;;;;;;;;;;;1.40;99.90;;;;;;5089277;28;19923;-75
2024/01/11 10:01:21;;;;;;;;;;;1.30;99.90;;;;;;5090609;28;19919;-74
2024/01/11 10:03:47;;;;;;;;;;;1.40;99.90;;;;;;5074314;28;19980;-74
2024/01/11 10:06:17;;;;;;;;;;;1.60;99.90;;;;;;5111006;27;19923;-74
2024/01/11 10:08:43;;;;;;;;;;;1.60;99.90;;;;;;5093152;28;19970;-76
2024/01/11 10:11:09;;;;;;;;;;;1.70;99.90;;;;;;5090524;28;19932;-75
2024/01/11 10:13:35;;;;;;;;;;;1.80;99.90;;;;;;5102778;28;20772;-75
2024/01/11 10:16:05;;;;;;;;;;;2.00;99.90;;;;;;5086080;28;19967;-75
2024/01/11 10:18:34;;;;;;;;;;;2.10;99.90;;;;;;5104789;28;19954;-76
2024/01/11 10:20:59;;;;;;;;;;;2.20;99.90;;;;;;5071069;28;19957;-75
2024/01/11 10:23:25;;;;;;;;;;;2.20;99.90;;;;;;5069096;28;19924;-75
2024/01/11 10:25:50;;;;;;;;;;;2.40;99.90;;;;;;5084911;28;19959;-76
2024/01/11 10:28:18;;;;;;;;;;;3.00;99.90;;;;;;5067722;28;19999;-76
2024/01/11 10:30:45;;;;;;;;;;;2.50;99.90;;;;;;5083664;28;19956;-78
2024/01/11 10:33:12;;;;;;;;;;;2.60;99.90;;;;;;5099015;27;19982;-77
2024/01/11 10:35:37;;;;;;;;;;;2.70;99.90;;;;;;5086350;28;19931;-77
2024/01/11 10:38:10;;;;;;;;;;;3.70;99.90;;;;;;5083283;28;19962;-80
2024/01/11 10:40:42;;;;;;;;;;;2.80;99.90;;;;;;5068745;28;19924;-78
2024/01/11 10:43:13;;;;;;;;;;;2.90;99.90;;;;;;5100464;28;19945;-78
2024/01/11 10:45:38;;;;;;;;;;;2.90;99.90;;;;;;5069466;28;19995;-78
2024/01/11 10:48:13;;;;;;;;;;;3.00;99.90;;;;;;5101394;28;21296;-77
2024/01/11 10:50:41;;;;;;;;;;;3.00;99.90;;;;;;5087436;28;19924;-77
2024/01/11 10:53:29;;;;;;;;;;;3.00;99.90;;;;;;5084145;28;19931;-76
2024/01/11 10:55:55;;;;;;;;;;;3.00;99.90;;;;;;5101536;27;19928;-75
2024/01/11 10:58:22;;;;;;;;;;;3.60;99.90;;;;;;5082287;28;19966;-76
2024/01/11 11:00:48;;;;;;;;;;;3.10;99.90;;;;;;5083767;28;19938;-76
2024/01/11 11:03:15;;;;;;;;;;;3.10;99.90;;;;;;5084153;28;19924;-76
2024/01/11 11:05:47;;;;;;;;;;;3.20;99.90;;;;;;5102193;27;19928;-76
2024/01/11 11:08:13;;;;;;;;;;;3.20;99.90;;;;;;5083602;28;19939;-75
2024/01/11 11:10:40;;;;;;;;;;;3.20;99.90;;;;;;5065406;28;19952;-76
2024/01/11 11:13:06;;;;;;;;;;;4.40;99.90;;;;;;5066286;28;19950;-76
2024/01/11 11:15:32;;;;;;;;;;;3.20;99.90;;;;;;5066539;28;20366;-76
2024/01/11 11:17:57;;;;;;;;;;;3.30;99.90;;;;;;5046632;28;19977;-76
2024/01/11 11:20:23;;;;;;;;;;;4.40;99.90;;;;;;5079864;27;19924;-76
2024/01/11 11:23:03;;;;;;;;;;;3.30;99.90;;;;;;5082058;28;19935;-76
2024/01/11 11:25:30;;;;;;;;;;;3.90;99.90;;;;;;5084430;28;19928;-76
2024/01/11 11:27:57;;;;;;;;;;;3.40;99.90;;;;;;5081361;28;20026;-77
2024/01/11 11:30:23;;;;;;;;;;;3.50;99.90;;;;;;5098375;28;19973;-76
2024/01/11 11:32:48;;;;;;;;;;;4.50;99.90;;;;;;5083501;28;19931;-76
2024/01/11 11:35:14;;;;;;;;;;;3.50;99.90;;;;;;5082067;27;20027;-78
2024/01/11 11:37:40;;;;;;;;;;;3.60;99.90;;;;;;5100322;28;20326;-76
2024/01/11 11:40:06;;;;;;;;;;;3.80;99.90;;;;;;5083496;27;20499;-76
2024/01/11 11:42:34;;;;;;;;;;;3.60;99.90;;;;;;5083714;28;20001;-76
2024/01/11 11:45:02;;;;;;;;;;;4.40;99.90;;;;;;5098866;28;19935;-76
2024/01/11 11:47:35;;;;;;;;;;;3.60;99.90;;;;;;5099368;28;19924;-76
2024/01/11 11:50:05;;;;;;;;;;;3.60;99.90;;;;;;5084360;28;20337;-74
2024/01/11 11:52:32;;;;;;;;;;;3.60;99.90;;;;;;5085061;28;19928;-76
2024/01/11 11:55:04;;;;;;;;;;;3.60;99.90;;;;;;5099602;28;19980;-77
2024/01/11 11:57:31;;;;;;;;;;;3.70;99.90;;;;;;5083297;28;19931;-76
2024/01/11 11:59:58;;;;;;;;;;;3.70;99.90;;;;;;5082588;28;20001;-77
2024/01/11 12:02:25;;;;;;;;;;;4.00;99.90;;;;;;5083296;28;19980;-75
2024/01/11 12:04:50;;;;;;;;;;;4.70;99.90;;;;;;5065429;28;20077;-76
2024/01/11 12:07:16;;;;;;;;;;;3.80;99.90;;;;;;5064478;28;19931;-76
2024/01/11 12:09:42;;;;;;;;;;;3.80;99.90;;;;;;5066607;28;19928;-74
2024/01/11 12:12:08;;;;;;;;;;;3.80;99.90;;;;;;5101159;28;20554;-76
2024/01/11 12:14:34;;;;;;;;;;;3.80;99.90;;;;;;5083902;28;19931;-77
2024/01/11 12:16:59;;;;;;;;;;;3.80;99.90;;;;;;5100794;27;19938;-76
2024/01/11 12:19:25;;;;;;;;;;;3.80;99.90;;;;;;5085250;28;19928;-76
2024/01/11 12:21:51;;;;;;;;;;;3.40;99.90;;;;;;5086028;28;19927;-76
2024/01/11 12:24:17;;;;;;;;;;;4.00;99.90;;;;;;5082848;28;20218;-76
2024/01/11 12:26:43;;;;;;;;;;;3.90;99.90;;;;;;5082960;28;21007;-76
2024/01/11 12:29:09;;;;;;;;;;;4.40;99.90;;;;;;5065657;28;20011;-76
2024/01/11 12:31:35;;;;;;;;;;;4.00;99.90;;;;;;5085939;28;19928;-76
2024/01/11 12:34:03;;;;;;;;;;;4.00;99.90;;;;;;5065699;28;19924;-77
2024/01/11 12:36:29;;;;;;;;;;;4.00;99.90;;;;;;5084518;28;20156;-77
2024/01/11 12:38:54;;;;;;;;;;;4.00;99.90;;;;;;5086229;28;19928;-77
2024/01/11 12:41:21;;;;;;;;;;;4.00;99.90;;;;;;5084121;28;19932;-76
2024/01/11 12:43:47;;;;;;;;;;;4.00;99.90;;;;;;5065876;28;19932;-77
2024/01/11 12:46:13;;;;;;;;;;;2.90;99.90;;;;;;5081445;28;19927;-76
2024/01/11 12:48:38;;;;;;;;;;;4.00;99.90;;;;;;5087505;28;19932;-77
2024/01/11 12:51:04;;;;;;;;;;;4.00;99.90;;;;;;5080636;28;19993;-77
2024/01/11 12:53:30;;;;;;;;;;;4.00;99.90;;;;;;5103095;28;19935;-77
2024/01/11 12:56:03;;;;;;;;;;;4.10;99.90;;;;;;5086949;28;19931;-76
2024/01/11 12:58:29;;;;;;;;;;;4.10;99.90;;;;;;5087898;28;19935;-76
2024/01/11 13:01:00;;;;;;;;;;;4.10;99.90;;;;;;5084977;28;19930;-79
2024/01/11 13:03:29;;;;;;;;;;;4.10;99.90;;;;;;5086409;28;19932;-78
2024/01/11 13:05:54;;;;;;;;;;;4.10;99.90;;;;;;5073153;28;19924;-75
2024/01/11 13:08:20;;;;;;;;;;;4.20;99.90;;;;;;5106724;28;19938;-80
2024/01/11 13:10:47;;;;;;;;;;;4.40;99.90;;;;;;5089471;28;21207;-81
2024/01/11 13:13:14;;;;;;;;;;;4.20;99.90;;;;;;5074543;28;20050;-81
2024/01/11 13:15:40;;;;;;;;;;;4.20;99.90;;;;;;5089232;28;20305;-80
2024/01/11 13:18:06;;;;;;;;;;;4.20;99.90;;;;;;5095165;28;19923;-80
2024/01/11 13:20:31;;;;;;;;;;;4.20;99.90;;;;;;5085154;28;19924;-75
2024/01/11 13:23:17;;;;;;;;;;;4.30;99.90;;;;;;5086983;28;19950;-76
2024/01/11 13:25:44;;;;;;;;;;;4.30;99.90;;;;;;5085489;28;19965;-79
2024/01/11 13:28:11;;;;;;;;;;;4.30;99.90;;;;;;5068200;28;19932;-76
2024/01/11 13:30:40;;;;;;;;;;;4.40;99.90;;;;;;5085459;28;20492;-77
2024/01/11 13:33:07;;;;;;;;;;;4.70;99.90;;;;;;5083661;28;20370;-76
2024/01/11 13:35:34;;;;;;;;;;;4.40;99.90;;;;;;5086643;28;19927;-80
2024/01/11 13:38:00;;;;;;;;;;;4.50;99.90;;;;;;5070401;28;19932;-79
2024/01/11 13:40:28;;;;;;;;;;;4.40;99.90;;;;;;5086367;28;19934;-79
2024/01/11 13:42:59;;;;;;;;;;;4.40;99.90;;;;;;5087079;28;19932;-81
2024/01/11 13:45:26;;;;;;;;;;;4.50;99.90;;;;;;5084237;28;19934;-76
2024/01/11 13:47:53;;;;;;;;;;;4.40;99.90;;;;;;5067736;28;19932;-75
2024/01/11 13:50:20;;;;;;;;;;;4.40;99.90;;;;;;5100471;28;20012;-75
2024/01/11 13:52:46;;;;;;;;;;;4.40;99.90;;;;;;5083591;28;20010;-79
2024/01/11 13:55:12;;;;;;;;;;;4.40;99.90;;;;;;5083581;28;20022;-79
2024/01/11 13:57:38;;;;;;;;;;;4.40;99.90;;;;;;5084376;28;19986;-78
2024/01/11 14:00:04;;;;;;;;;;;4.40;99.90;;;;;;5087487;28;20387;-78
2024/01/11 14:02:30;;;;;;;;;;;4.40;99.90;;;;;;5104834;27;19931;-76
2024/01/11 14:04:55;;;;;;;;;;;4.40;99.90;;;;;;5071600;28;19973;-79
2024/01/11 14:07:30;;;;;;;;;;;4.50;99.90;;;;;;5086164;28;20455;-78
2024/01/11 14:09:58;;;;;;;;;;;4.50;99.90;;;;;;5088122;28;20395;-79
2024/01/11 14:12:24;;;;;;;;;;;4.40;99.90;;;;;;5070640;28;19931;-77
2024/01/11 14:14:51;;;;;;;;;;;4.40;99.90;;;;;;5085648;28;20468;-79
2024/01/11 14:17:17;;;;;;;;;;;4.40;99.90;;;;;;5088964;28;19924;-78